sensor_id;sensor_type;location;lat;lon;timestamp;P1;durP1;ratioP1;P2;durP2;ratioP2
4519;SDS011;2272;49.226;8.108;2023-02-12T00:01:13;12.87;;;9.40;;
4519;SDS011;2272;49.226;8.108;2023-02-12T00:03:40;12.90;;;9.00;;
4519;SDS011;2272;49.226;8.108;2023-02-12T00:06:07;12.57;;;8.70;;
4519;SDS011;2272;49.226;8.108;2023-02-12T00:08:35;11.97;;;8.87;;
4519;SDS011;2272;49.226;8.108;2023-02-12T00:11:08;13.67;;;8.17;;
4519;SDS011;2272;49.226;8.108;2023-02-12T00:13:36;8.93;;;7.00;;
4519;SDS011;2272;49.226;8.108;2023-02-12T00:16:04;11.57;;;8.03;;
4519;SDS011;2272;49.226;8.108;2023-02-12T00:18:32;12.10;;;6.90;;
4519;SDS011;2272;49.226;8.108;2023-02-12T00:20:59;11.00;;;7.37;;
4519;SDS011;2272;49.226;8.108;2023-02-12T00:23:26;12.53;;;7.70;;
4519;SDS011;2272;49.226;8.108;2023-02-12T00:25:53;11.13;;;8.17;;
4519;SDS011;2272;49.226;8.108;2023-02-12T00:28:21;10.90;;;7.70;;
4519;SDS011;2272;49.226;8.108;2023-02-12T00:30:48;13.70;;;8.47;;
4519;SDS011;2272;49.226;8.108;2023-02-12T00:33:15;11.00;;;8.33;;
4519;SDS011;2272;49.226;8.108;2023-02-12T00:35:41;14.13;;;8.83;;
4519;SDS011;2272;49.226;8.108;2023-02-12T00:38:08;12.20;;;9.27;;
4519;SDS011;2272;49.226;8.108;2023-02-12T00:40:35;10.77;;;7.83;;
4519;SDS011;2272;49.226;8.108;2023-02-12T00:43:02;11.10;;;8.50;;
4519;SDS011;2272;49.226;8.108;2023-02-12T00:45:30;13.00;;;8.33;;
4519;SDS011;2272;49.226;8.108;2023-02-12T00:47:56;12.50;;;8.30;;
4519;SDS011;2272;49.226;8.108;2023-02-12T00:50:23;15.70;;;9.37;;
4519;SDS011;2272;49.226;8.108;2023-02-12T00:52:50;15.40;;;9.70;;
4519;SDS011;2272;49.226;8.108;2023-02-12T00:55:16;20.63;;;11.63;;
4519;SDS011;2272;49.226;8.108;2023-02-12T00:57:43;17.03;;;10.30;;
4519;SDS011;2272;49.226;8.108;2023-02-12T01:00:10;14.17;;;9.57;;
4519;SDS011;2272;49.226;8.108;2023-02-12T01:02:39;13.00;;;8.87;;
4519;SDS011;2272;49.226;8.108;2023-02-12T01:05:06;14.83;;;10.00;;
4519;SDS011;2272;49.226;8.108;2023-02-12T01:07:33;14.57;;;8.90;;
4519;SDS011;2272;49.226;8.108;2023-02-12T01:10:00;12.67;;;9.10;;
4519;SDS011;2272;49.226;8.108;2023-02-12T01:12:26;16.23;;;8.53;;
4519;SDS011;2272;49.226;8.108;2023-02-12T01:14:53;16.33;;;9.87;;
4519;SDS011;2272;49.226;8.108;2023-02-12T01:17:20;12.07;;;9.63;;
4519;SDS011;2272;49.226;8.108;2023-02-12T01:19:48;13.80;;;8.87;;
4519;SDS011;2272;49.226;8.108;2023-02-12T01:22:14;12.73;;;9.40;;
4519;SDS011;2272;49.226;8.108;2023-02-12T01:24:42;13.53;;;9.13;;
4519;SDS011;2272;49.226;8.108;2023-02-12T01:27:09;13.63;;;9.90;;
4519;SDS011;2272;49.226;8.108;2023-02-12T01:29:35;11.83;;;8.20;;
4519;SDS011;2272;49.226;8.108;2023-02-12T01:32:03;13.70;;;8.70;;
4519;SDS011;2272;49.226;8.108;2023-02-12T01:34:30;18.67;;;11.20;;
4519;SDS011;2272;49.226;8.108;2023-02-12T01:36:58;14.97;;;10.40;;
4519;SDS011;2272;49.226;8.108;2023-02-12T01:39:25;15.50;;;8.47;;
4519;SDS011;2272;49.226;8.108;2023-02-12T01:41:51;15.53;;;9.80;;
4519;SDS011;2272;49.226;8.108;2023-02-12T01:44:19;11.50;;;8.73;;
4519;SDS011;2272;49.226;8.108;2023-02-12T01:46:48;14.10;;;9.70;;
4519;SDS011;2272;49.226;8.108;2023-02-12T01:49:16;13.70;;;8.30;;
4519;SDS011;2272;49.226;8.108;2023-02-12T01:51:46;15.93;;;10.73;;
4519;SDS011;2272;49.226;8.108;2023-02-12T01:54:16;13.53;;;9.27;;
4519;SDS011;2272;49.226;8.108;2023-02-12T01:56:45;14.30;;;10.50;;
4519;SDS011;2272;49.226;8.108;2023-02-12T01:59:13;13.83;;;8.90;;
4519;SDS011;2272;49.226;8.108;2023-02-12T02:01:41;15.00;;;9.73;;
4519;SDS011;2272;49.226;8.108;2023-02-12T02:04:09;15.30;;;10.17;;
4519;SDS011;2272;49.226;8.108;2023-02-12T02:06:41;13.03;;;9.27;;
4519;SDS011;2272;49.226;8.108;2023-02-12T02:09:13;13.53;;;9.20;;
4519;SDS011;2272;49.226;8.108;2023-02-12T02:11:41;13.67;;;9.37;;
4519;SDS011;2272;49.226;8.108;2023-02-12T02:14:25;19.97;;;10.17;;
4519;SDS011;2272;49.226;8.108;2023-02-12T02:17:00;12.33;;;9.40;;
4519;SDS011;2272;49.226;8.108;2023-02-12T02:19:44;12.53;;;9.63;;
4519;SDS011;2272;49.226;8.108;2023-02-12T02:22:30;13.63;;;8.67;;
4519;SDS011;2272;49.226;8.108;2023-02-12T02:28:20;17.30;;;9.90;;
4519;SDS011;2272;49.226;8.108;2023-02-12T02:31:12;20.30;;;9.23;;
4519;SDS011;2272;49.226;8.108;2023-02-12T02:33:43;12.57;;;9.13;;
4519;SDS011;2272;49.226;8.108;2023-02-12T02:36:19;10.43;;;8.60;;
4519;SDS011;2272;49.226;8.108;2023-02-12T02:38:53;15.90;;;9.77;;
4519;SDS011;2272;49.226;8.108;2023-02-12T02:41:27;14.50;;;8.50;;
4519;SDS011;2272;49.226;8.108;2023-02-12T02:43:58;13.50;;;9.30;;
4519;SDS011;2272;49.226;8.108;2023-02-12T02:46:32;12.03;;;8.70;;
4519;SDS011;2272;49.226;8.108;2023-02-12T02:49:02;11.33;;;9.10;;
4519;SDS011;2272;49.226;8.108;2023-02-12T02:51:32;11.50;;;8.17;;
4519;SDS011;2272;49.226;8.108;2023-02-12T02:54:03;13.97;;;8.47;;
4519;SDS011;2272;49.226;8.108;2023-02-12T02:56:33;12.37;;;8.80;;
4519;SDS011;2272;49.226;8.108;2023-02-12T02:59:03;12.10;;;8.40;;
4519;SDS011;2272;49.226;8.108;2023-02-12T03:01:35;16.43;;;9.97;;
4519;SDS011;2272;49.226;8.108;2023-02-12T03:04:06;14.70;;;9.57;;
4519;SDS011;2272;49.226;8.108;2023-02-12T03:06:39;9.07;;;7.70;;
4519;SDS011;2272;49.226;8.108;2023-02-12T03:09:12;12.33;;;8.87;;
4519;SDS011;2272;49.226;8.108;2023-02-12T03:11:44;15.87;;;10.00;;
4519;SDS011;2272;49.226;8.108;2023-02-12T03:14:12;16.70;;;10.70;;
4519;SDS011;2272;49.226;8.108;2023-02-12T03:16:45;12.60;;;9.17;;
4519;SDS011;2272;49.226;8.108;2023-02-12T03:19:17;16.17;;;9.00;;
4519;SDS011;2272;49.226;8.108;2023-02-12T03:21:48;12.80;;;9.50;;
4519;SDS011;2272;49.226;8.108;2023-02-12T03:24:20;14.13;;;9.07;;
4519;SDS011;2272;49.226;8.108;2023-02-12T03:26:51;15.47;;;8.80;;
4519;SDS011;2272;49.226;8.108;2023-02-12T03:29:23;9.30;;;7.60;;
4519;SDS011;2272;49.226;8.108;2023-02-12T03:32:02;12.30;;;9.30;;
4519;SDS011;2272;49.226;8.108;2023-02-12T03:34:44;10.90;;;8.40;;
4519;SDS011;2272;49.226;8.108;2023-02-12T03:37:16;12.93;;;8.47;;
4519;SDS011;2272;49.226;8.108;2023-02-12T03:39:48;10.00;;;8.27;;
4519;SDS011;2272;49.226;8.108;2023-02-12T03:42:20;13.47;;;8.90;;
4519;SDS011;2272;49.226;8.108;2023-02-12T03:44:56;16.80;;;9.20;;
4519;SDS011;2272;49.226;8.108;2023-02-12T03:47:30;11.70;;;8.53;;
4519;SDS011;2272;49.226;8.108;2023-02-12T03:50:08;15.20;;;9.10;;
4519;SDS011;2272;49.226;8.108;2023-02-12T03:52:38;17.30;;;10.10;;
4519;SDS011;2272;49.226;8.108;2023-02-12T03:55:06;11.77;;;9.00;;
4519;SDS011;2272;49.226;8.108;2023-02-12T03:57:35;18.90;;;11.13;;
4519;SDS011;2272;49.226;8.108;2023-02-12T04:00:06;17.17;;;9.90;;
4519;SDS011;2272;49.226;8.108;2023-02-12T04:02:37;15.20;;;10.37;;
4519;SDS011;2272;49.226;8.108;2023-02-12T04:05:05;12.60;;;9.07;;
4519;SDS011;2272;49.226;8.108;2023-02-12T04:07:33;12.70;;;9.03;;
4519;SDS011;2272;49.226;8.108;2023-02-12T04:10:02;14.23;;;9.10;;
4519;SDS011;2272;49.226;8.108;2023-02-12T04:12:38;18.73;;;12.80;;
4519;SDS011;2272;49.226;8.108;2023-02-12T04:15:15;11.20;;;8.47;;
4519;SDS011;2272;49.226;8.108;2023-02-12T04:17:56;11.03;;;8.13;;
4519;SDS011;2272;49.226;8.108;2023-02-12T04:20:30;14.80;;;10.40;;
4519;SDS011;2272;49.226;8.108;2023-02-12T04:23:11;19.73;;;11.73;;
4519;SDS011;2272;49.226;8.108;2023-02-12T04:25:50;14.33;;;10.60;;
4519;SDS011;2272;49.226;8.108;2023-02-12T04:28:24;20.67;;;11.53;;
4519;SDS011;2272;49.226;8.108;2023-02-12T04:30:59;14.60;;;9.97;;
4519;SDS011;2272;49.226;8.108;2023-02-12T04:33:33;24.93;;;12.60;;
4519;SDS011;2272;49.226;8.108;2023-02-12T04:36:07;22.63;;;12.43;;
4519;SDS011;2272;49.226;8.108;2023-02-12T04:38:39;20.30;;;13.43;;
4519;SDS011;2272;49.226;8.108;2023-02-12T04:41:10;26.17;;;12.60;;
4519;SDS011;2272;49.226;8.108;2023-02-12T04:43:37;18.53;;;12.43;;
4519;SDS011;2272;49.226;8.108;2023-02-12T04:46:04;24.37;;;13.80;;
4519;SDS011;2272;49.226;8.108;2023-02-12T04:48:34;19.43;;;12.80;;
4519;SDS011;2272;49.226;8.108;2023-02-12T04:51:02;19.87;;;11.70;;
4519;SDS011;2272;49.226;8.108;2023-02-12T04:53:29;24.53;;;13.10;;
4519;SDS011;2272;49.226;8.108;2023-02-12T04:55:56;19.37;;;12.23;;
4519;SDS011;2272;49.226;8.108;2023-02-12T04:58:22;15.23;;;11.20;;
4519;SDS011;2272;49.226;8.108;2023-02-12T05:00:49;16.27;;;11.60;;
4519;SDS011;2272;49.226;8.108;2023-02-12T05:03:16;21.97;;;14.03;;
4519;SDS011;2272;49.226;8.108;2023-02-12T05:05:44;20.60;;;12.03;;
4519;SDS011;2272;49.226;8.108;2023-02-12T05:08:10;21.70;;;13.07;;
4519;SDS011;2272;49.226;8.108;2023-02-12T05:10:37;18.97;;;13.83;;
4519;SDS011;2272;49.226;8.108;2023-02-12T05:13:04;19.43;;;12.97;;
4519;SDS011;2272;49.226;8.108;2023-02-12T05:15:30;22.53;;;15.07;;
4519;SDS011;2272;49.226;8.108;2023-02-12T05:17:57;24.77;;;14.57;;
4519;SDS011;2272;49.226;8.108;2023-02-12T05:20:24;22.23;;;13.60;;
4519;SDS011;2272;49.226;8.108;2023-02-12T05:22:52;24.40;;;14.33;;
4519;SDS011;2272;49.226;8.108;2023-02-12T05:25:19;18.23;;;13.20;;
4519;SDS011;2272;49.226;8.108;2023-02-12T05:27:46;21.37;;;13.37;;
4519;SDS011;2272;49.226;8.108;2023-02-12T05:30:12;19.83;;;13.57;;
4519;SDS011;2272;49.226;8.108;2023-02-12T05:32:39;26.70;;;14.33;;
4519;SDS011;2272;49.226;8.108;2023-02-12T05:35:06;23.97;;;13.80;;
4519;SDS011;2272;49.226;8.108;2023-02-12T05:37:33;23.50;;;13.70;;
4519;SDS011;2272;49.226;8.108;2023-02-12T05:40:02;24.17;;;14.17;;
4519;SDS011;2272;49.226;8.108;2023-02-12T05:42:29;23.87;;;14.87;;
4519;SDS011;2272;49.226;8.108;2023-02-12T05:44:55;21.53;;;15.13;;
4519;SDS011;2272;49.226;8.108;2023-02-12T05:47:22;25.37;;;14.10;;
4519;SDS011;2272;49.226;8.108;2023-02-12T05:49:49;23.70;;;14.37;;
4519;SDS011;2272;49.226;8.108;2023-02-12T05:52:15;30.23;;;16.70;;
4519;SDS011;2272;49.226;8.108;2023-02-12T05:54:42;27.73;;;15.90;;
4519;SDS011;2272;49.226;8.108;2023-02-12T05:57:10;32.87;;;17.20;;
4519;SDS011;2272;49.226;8.108;2023-02-12T05:59:37;22.80;;;14.23;;
4519;SDS011;2272;49.226;8.108;2023-02-12T06:02:04;28.97;;;18.50;;
4519;SDS011;2272;49.226;8.108;2023-02-12T06:04:31;38.43;;;17.13;;
4519;SDS011;2272;49.226;8.108;2023-02-12T06:06:58;30.73;;;17.90;;
4519;SDS011;2272;49.226;8.108;2023-02-12T06:09:25;24.97;;;16.20;;
4519;SDS011;2272;49.226;8.108;2023-02-12T06:11:52;35.20;;;18.20;;
4519;SDS011;2272;49.226;8.108;2023-02-12T06:14:20;25.90;;;15.37;;
4519;SDS011;2272;49.226;8.108;2023-02-12T06:16:49;28.97;;;16.10;;
4519;SDS011;2272;49.226;8.108;2023-02-12T06:19:16;30.27;;;16.93;;
4519;SDS011;2272;49.226;8.108;2023-02-12T06:21:44;26.53;;;16.37;;
4519;SDS011;2272;49.226;8.108;2023-02-12T06:24:12;23.77;;;14.17;;
4519;SDS011;2272;49.226;8.108;2023-02-12T06:26:39;18.20;;;13.30;;
4519;SDS011;2272;49.226;8.108;2023-02-12T06:29:06;24.40;;;14.20;;
4519;SDS011;2272;49.226;8.108;2023-02-12T06:31:34;21.97;;;13.27;;
4519;SDS011;2272;49.226;8.108;2023-02-12T06:34:02;25.23;;;14.20;;
4519;SDS011;2272;49.226;8.108;2023-02-12T06:36:31;21.33;;;14.37;;
4519;SDS011;2272;49.226;8.108;2023-02-12T06:38:59;22.87;;;14.90;;
4519;SDS011;2272;49.226;8.108;2023-02-12T06:41:26;26.47;;;15.87;;
4519;SDS011;2272;49.226;8.108;2023-02-12T06:43:53;24.30;;;14.40;;
4519;SDS011;2272;49.226;8.108;2023-02-12T06:46:20;22.07;;;14.73;;
4519;SDS011;2272;49.226;8.108;2023-02-12T06:48:51;26.30;;;14.43;;
4519;SDS011;2272;49.226;8.108;2023-02-12T06:51:19;27.47;;;15.07;;
4519;SDS011;2272;49.226;8.108;2023-02-12T06:53:47;25.00;;;15.53;;
4519;SDS011;2272;49.226;8.108;2023-02-12T06:56:15;28.73;;;15.17;;
4519;SDS011;2272;49.226;8.108;2023-02-12T06:58:44;26.47;;;16.13;;
4519;SDS011;2272;49.226;8.108;2023-02-12T07:01:13;34.50;;;17.57;;
4519;SDS011;2272;49.226;8.108;2023-02-12T07:03:42;25.63;;;15.93;;
4519;SDS011;2272;49.226;8.108;2023-02-12T07:06:11;30.77;;;17.20;;
4519;SDS011;2272;49.226;8.108;2023-02-12T07:08:38;25.67;;;15.40;;
4519;SDS011;2272;49.226;8.108;2023-02-12T07:11:04;32.80;;;17.10;;
4519;SDS011;2272;49.226;8.108;2023-02-12T07:13:32;26.13;;;16.67;;
4519;SDS011;2272;49.226;8.108;2023-02-12T07:16:01;26.20;;;17.77;;
4519;SDS011;2272;49.226;8.108;2023-02-12T07:18:29;26.23;;;17.13;;
4519;SDS011;2272;49.226;8.108;2023-02-12T07:20:56;28.87;;;16.97;;
4519;SDS011;2272;49.226;8.108;2023-02-12T07:23:24;30.23;;;17.70;;
4519;SDS011;2272;49.226;8.108;2023-02-12T07:25:54;31.50;;;17.30;;
4519;SDS011;2272;49.226;8.108;2023-02-12T07:28:21;28.13;;;16.87;;
4519;SDS011;2272;49.226;8.108;2023-02-12T07:30:48;28.27;;;18.47;;
4519;SDS011;2272;49.226;8.108;2023-02-12T07:33:15;25.87;;;17.20;;
4519;SDS011;2272;49.226;8.108;2023-02-12T07:35:42;30.17;;;17.20;;
4519;SDS011;2272;49.226;8.108;2023-02-12T07:38:09;28.13;;;16.10;;
4519;SDS011;2272;49.226;8.108;2023-02-12T07:40:37;35.33;;;20.43;;
4519;SDS011;2272;49.226;8.108;2023-02-12T07:43:03;35.37;;;19.23;;
4519;SDS011;2272;49.226;8.108;2023-02-12T07:45:30;33.17;;;18.80;;
4519;SDS011;2272;49.226;8.108;2023-02-12T07:47:57;31.93;;;18.03;;
4519;SDS011;2272;49.226;8.108;2023-02-12T07:50:23;35.17;;;19.13;;
4519;SDS011;2272;49.226;8.108;2023-02-12T07:52:50;47.63;;;21.47;;
4519;SDS011;2272;49.226;8.108;2023-02-12T07:55:17;43.67;;;22.57;;
4519;SDS011;2272;49.226;8.108;2023-02-12T07:57:45;40.30;;;20.77;;
4519;SDS011;2272;49.226;8.108;2023-02-12T08:00:12;44.50;;;22.33;;
4519;SDS011;2272;49.226;8.108;2023-02-12T08:02:40;39.83;;;21.00;;
4519;SDS011;2272;49.226;8.108;2023-02-12T08:05:06;55.33;;;23.43;;
4519;SDS011;2272;49.226;8.108;2023-02-12T08:07:33;42.27;;;23.90;;
4519;SDS011;2272;49.226;8.108;2023-02-12T08:10:00;45.57;;;22.93;;
4519;SDS011;2272;49.226;8.108;2023-02-12T08:12:26;41.70;;;22.30;;
4519;SDS011;2272;49.226;8.108;2023-02-12T08:14:54;43.07;;;21.30;;
4519;SDS011;2272;49.226;8.108;2023-02-12T08:17:21;43.77;;;24.90;;
4519;SDS011;2272;49.226;8.108;2023-02-12T08:19:48;44.10;;;23.73;;
4519;SDS011;2272;49.226;8.108;2023-02-12T08:22:14;45.03;;;24.53;;
4519;SDS011;2272;49.226;8.108;2023-02-12T08:24:41;60.00;;;24.00;;
4519;SDS011;2272;49.226;8.108;2023-02-12T08:27:08;42.83;;;23.03;;
4519;SDS011;2272;49.226;8.108;2023-02-12T08:29:35;48.93;;;25.10;;
4519;SDS011;2272;49.226;8.108;2023-02-12T08:32:03;48.50;;;25.20;;
4519;SDS011;2272;49.226;8.108;2023-02-12T08:34:34;39.53;;;22.93;;
4519;SDS011;2272;49.226;8.108;2023-02-12T08:37:02;43.43;;;23.47;;
4519;SDS011;2272;49.226;8.108;2023-02-12T08:39:30;51.70;;;24.63;;
4519;SDS011;2272;49.226;8.108;2023-02-12T08:41:58;43.13;;;23.13;;
4519;SDS011;2272;49.226;8.108;2023-02-12T08:44:25;50.50;;;24.97;;
4519;SDS011;2272;49.226;8.108;2023-02-12T08:46:52;43.23;;;24.10;;
4519;SDS011;2272;49.226;8.108;2023-02-12T08:49:22;40.43;;;23.47;;
4519;SDS011;2272;49.226;8.108;2023-02-12T08:51:50;46.00;;;24.40;;
4519;SDS011;2272;49.226;8.108;2023-02-12T08:54:18;53.30;;;24.60;;
4519;SDS011;2272;49.226;8.108;2023-02-12T08:56:46;47.00;;;25.57;;
4519;SDS011;2272;49.226;8.108;2023-02-12T08:59:14;46.43;;;25.60;;
4519;SDS011;2272;49.226;8.108;2023-02-12T09:01:41;50.60;;;26.23;;
4519;SDS011;2272;49.226;8.108;2023-02-12T09:04:10;49.80;;;24.43;;
4519;SDS011;2272;49.226;8.108;2023-02-12T09:06:43;49.00;;;24.33;;
4519;SDS011;2272;49.226;8.108;2023-02-12T09:09:10;50.97;;;25.13;;
4519;SDS011;2272;49.226;8.108;2023-02-12T09:11:37;50.47;;;25.17;;
4519;SDS011;2272;49.226;8.108;2023-02-12T09:14:04;42.20;;;25.13;;
4519;SDS011;2272;49.226;8.108;2023-02-12T09:16:34;47.97;;;25.90;;
4519;SDS011;2272;49.226;8.108;2023-02-12T09:19:02;70.20;;;25.33;;
4519;SDS011;2272;49.226;8.108;2023-02-12T09:21:29;46.57;;;26.10;;
4519;SDS011;2272;49.226;8.108;2023-02-12T09:23:57;48.67;;;25.37;;
4519;SDS011;2272;49.226;8.108;2023-02-12T09:26:24;44.20;;;25.10;;
4519;SDS011;2272;49.226;8.108;2023-02-12T09:28:51;46.30;;;26.63;;
4519;SDS011;2272;49.226;8.108;2023-02-12T09:31:19;50.70;;;27.40;;
4519;SDS011;2272;49.226;8.108;2023-02-12T09:33:50;42.40;;;23.90;;
4519;SDS011;2272;49.226;8.108;2023-02-12T09:36:17;47.53;;;26.63;;
4519;SDS011;2272;49.226;8.108;2023-02-12T09:38:44;52.13;;;28.17;;
4519;SDS011;2272;49.226;8.108;2023-02-12T09:41:17;46.07;;;24.97;;
4519;SDS011;2272;49.226;8.108;2023-02-12T09:44:08;43.53;;;23.70;;
4519;SDS011;2272;49.226;8.108;2023-02-12T09:46:41;49.53;;;27.20;;
4519;SDS011;2272;49.226;8.108;2023-02-12T09:49:14;48.87;;;24.30;;
4519;SDS011;2272;49.226;8.108;2023-02-12T09:51:47;44.40;;;25.00;;
4519;SDS011;2272;49.226;8.108;2023-02-12T09:54:18;47.70;;;26.40;;
4519;SDS011;2272;49.226;8.108;2023-02-12T09:56:49;49.90;;;26.27;;
4519;SDS011;2272;49.226;8.108;2023-02-12T09:59:21;49.53;;;26.80;;
4519;SDS011;2272;49.226;8.108;2023-02-12T10:01:54;46.33;;;25.73;;
4519;SDS011;2272;49.226;8.108;2023-02-12T10:04:23;40.60;;;23.90;;
4519;SDS011;2272;49.226;8.108;2023-02-12T10:06:53;51.07;;;24.93;;
4519;SDS011;2272;49.226;8.108;2023-02-12T10:09:30;43.27;;;26.27;;
4519;SDS011;2272;49.226;8.108;2023-02-12T10:12:11;43.30;;;25.03;;
4519;SDS011;2272;49.226;8.108;2023-02-12T10:14:50;41.67;;;25.60;;
4519;SDS011;2272;49.226;8.108;2023-02-12T10:17:35;47.53;;;25.83;;
4519;SDS011;2272;49.226;8.108;2023-02-12T10:23:11;44.13;;;26.43;;
4519;SDS011;2272;49.226;8.108;2023-02-12T10:25:48;50.30;;;26.83;;
4519;SDS011;2272;49.226;8.108;2023-02-12T10:28:18;50.70;;;28.13;;
4519;SDS011;2272;49.226;8.108;2023-02-12T10:30:50;39.60;;;24.03;;
4519;SDS011;2272;49.226;8.108;2023-02-12T10:33:24;55.60;;;27.83;;
4519;SDS011;2272;49.226;8.108;2023-02-12T10:35:55;50.70;;;26.30;;
4519;SDS011;2272;49.226;8.108;2023-02-12T10:38:27;41.77;;;25.30;;
4519;SDS011;2272;49.226;8.108;2023-02-12T10:40:56;56.70;;;25.33;;
4519;SDS011;2272;49.226;8.108;2023-02-12T10:43:27;48.37;;;26.57;;
4519;SDS011;2272;49.226;8.108;2023-02-12T10:45:54;42.83;;;25.17;;
4519;SDS011;2272;49.226;8.108;2023-02-12T10:48:21;43.73;;;25.07;;
4519;SDS011;2272;49.226;8.108;2023-02-12T10:50:51;47.50;;;25.17;;
4519;SDS011;2272;49.226;8.108;2023-02-12T10:53:28;50.33;;;25.30;;
4519;SDS011;2272;49.226;8.108;2023-02-12T10:58:54;46.03;;;25.80;;
4519;SDS011;2272;49.226;8.108;2023-02-12T11:01:24;50.37;;;25.37;;
4519;SDS011;2272;49.226;8.108;2023-02-12T11:03:52;58.27;;;24.83;;
4519;SDS011;2272;49.226;8.108;2023-02-12T11:06:21;49.60;;;25.23;;
4519;SDS011;2272;49.226;8.108;2023-02-12T11:08:50;40.17;;;23.47;;
4519;SDS011;2272;49.226;8.108;2023-02-12T11:11:18;42.47;;;24.37;;
4519;SDS011;2272;49.226;8.108;2023-02-12T11:13:51;43.00;;;23.30;;
4519;SDS011;2272;49.226;8.108;2023-02-12T11:16:26;42.57;;;23.90;;
4519;SDS011;2272;49.226;8.108;2023-02-12T11:18:56;43.90;;;24.50;;
4519;SDS011;2272;49.226;8.108;2023-02-12T11:21:25;35.03;;;21.33;;
4519;SDS011;2272;49.226;8.108;2023-02-12T11:23:51;43.20;;;23.87;;
4519;SDS011;2272;49.226;8.108;2023-02-12T11:26:23;46.23;;;23.83;;
4519;SDS011;2272;49.226;8.108;2023-02-12T11:28:54;38.40;;;22.70;;
4519;SDS011;2272;49.226;8.108;2023-02-12T11:31:23;40.63;;;22.27;;
4519;SDS011;2272;49.226;8.108;2023-02-12T11:34:08;38.13;;;22.23;;
4519;SDS011;2272;49.226;8.108;2023-02-12T11:36:41;39.23;;;21.47;;
4519;SDS011;2272;49.226;8.108;2023-02-12T11:39:14;27.97;;;18.37;;
4519;SDS011;2272;49.226;8.108;2023-02-12T11:41:48;40.13;;;20.03;;
4519;SDS011;2272;49.226;8.108;2023-02-12T11:44:19;30.77;;;19.83;;
4519;SDS011;2272;49.226;8.108;2023-02-12T11:46:50;28.37;;;19.47;;
4519;SDS011;2272;49.226;8.108;2023-02-12T11:49:22;31.70;;;20.00;;
4519;SDS011;2272;49.226;8.108;2023-02-12T11:51:52;38.23;;;20.57;;
4519;SDS011;2272;49.226;8.108;2023-02-12T11:54:21;33.80;;;19.67;;
4519;SDS011;2272;49.226;8.108;2023-02-12T11:56:50;34.60;;;19.73;;
4519;SDS011;2272;49.226;8.108;2023-02-12T11:59:32;36.00;;;21.37;;
4519;SDS011;2272;49.226;8.108;2023-02-12T12:02:00;39.60;;;21.60;;
4519;SDS011;2272;49.226;8.108;2023-02-12T12:04:31;29.97;;;18.53;;
4519;SDS011;2272;49.226;8.108;2023-02-12T12:07:00;33.30;;;19.80;;
4519;SDS011;2272;49.226;8.108;2023-02-12T12:09:31;34.67;;;20.63;;
4519;SDS011;2272;49.226;8.108;2023-02-12T12:12:07;29.80;;;18.40;;
4519;SDS011;2272;49.226;8.108;2023-02-12T12:14:40;36.30;;;19.97;;
4519;SDS011;2272;49.226;8.108;2023-02-12T12:17:30;34.77;;;20.70;;
4519;SDS011;2272;49.226;8.108;2023-02-12T12:20:24;31.23;;;19.00;;
4519;SDS011;2272;49.226;8.108;2023-02-12T12:22:56;40.00;;;18.57;;
4519;SDS011;2272;49.226;8.108;2023-02-12T12:25:28;30.93;;;19.80;;
4519;SDS011;2272;49.226;8.108;2023-02-12T12:28:00;33.33;;;20.63;;
4519;SDS011;2272;49.226;8.108;2023-02-12T12:30:47;30.60;;;19.07;;
4519;SDS011;2272;49.226;8.108;2023-02-12T12:33:24;35.57;;;19.40;;
4519;SDS011;2272;49.226;8.108;2023-02-12T12:35:59;29.73;;;17.53;;
4519;SDS011;2272;49.226;8.108;2023-02-12T12:38:45;31.90;;;18.00;;
4519;SDS011;2272;49.226;8.108;2023-02-12T12:41:21;29.00;;;19.07;;
4519;SDS011;2272;49.226;8.108;2023-02-12T12:43:56;27.97;;;18.03;;
4519;SDS011;2272;49.226;8.108;2023-02-12T12:46:35;31.30;;;15.60;;
4519;SDS011;2272;49.226;8.108;2023-02-12T12:55:20;15.03;;;9.93;;
4519;SDS011;2272;49.226;8.108;2023-02-12T12:57:57;19.33;;;11.30;;
4519;SDS011;2272;49.226;8.108;2023-02-12T13:00:34;21.43;;;12.50;;
4519;SDS011;2272;49.226;8.108;2023-02-12T13:09:10;10.60;;;7.97;;
4519;SDS011;2272;49.226;8.108;2023-02-12T13:11:56;11.93;;;7.93;;
4519;SDS011;2272;49.226;8.108;2023-02-12T13:14:38;10.37;;;6.30;;
4519;SDS011;2272;49.226;8.108;2023-02-12T13:17:12;10.20;;;6.27;;
4519;SDS011;2272;49.226;8.108;2023-02-12T13:19:51;8.03;;;5.60;;
4519;SDS011;2272;49.226;8.108;2023-02-12T13:22:24;7.10;;;5.33;;
4519;SDS011;2272;49.226;8.108;2023-02-12T13:24:55;5.20;;;4.70;;
4519;SDS011;2272;49.226;8.108;2023-02-12T13:27:29;5.00;;;4.23;;
4519;SDS011;2272;49.226;8.108;2023-02-12T13:30:00;6.97;;;4.30;;
4519;SDS011;2272;49.226;8.108;2023-02-12T13:32:31;7.70;;;5.10;;
4519;SDS011;2272;49.226;8.108;2023-02-12T13:35:01;6.93;;;4.77;;
4519;SDS011;2272;49.226;8.108;2023-02-12T13:37:34;7.90;;;5.03;;
4519;SDS011;2272;49.226;8.108;2023-02-12T13:40:07;5.73;;;5.10;;
4519;SDS011;2272;49.226;8.108;2023-02-12T13:42:42;12.03;;;7.43;;
4519;SDS011;2272;49.226;8.108;2023-02-12T13:45:17;9.73;;;5.93;;
4519;SDS011;2272;49.226;8.108;2023-02-12T13:48:02;15.30;;;6.27;;
4519;SDS011;2272;49.226;8.108;2023-02-12T13:50:45;7.20;;;6.30;;
4519;SDS011;2272;49.226;8.108;2023-02-12T13:53:22;10.13;;;7.10;;
4519;SDS011;2272;49.226;8.108;2023-02-12T13:56:00;7.97;;;6.40;;
4519;SDS011;2272;49.226;8.108;2023-02-12T13:58:38;12.50;;;9.00;;
4519;SDS011;2272;49.226;8.108;2023-02-12T14:01:38;7.80;;;5.60;;
4519;SDS011;2272;49.226;8.108;2023-02-12T14:04:14;6.90;;;5.77;;
4519;SDS011;2272;49.226;8.108;2023-02-12T14:06:52;6.40;;;4.60;;
4519;SDS011;2272;49.226;8.108;2023-02-12T14:09:23;8.07;;;5.30;;
4519;SDS011;2272;49.226;8.108;2023-02-12T14:11:56;10.40;;;5.90;;
4519;SDS011;2272;49.226;8.108;2023-02-12T14:14:25;5.47;;;4.93;;
4519;SDS011;2272;49.226;8.108;2023-02-12T14:16:54;5.07;;;4.60;;
4519;SDS011;2272;49.226;8.108;2023-02-12T14:25:39;6.27;;;5.00;;
4519;SDS011;2272;49.226;8.108;2023-02-12T14:28:16;5.80;;;4.83;;
4519;SDS011;2272;49.226;8.108;2023-02-12T14:37:37;4.27;;;3.87;;
4519;SDS011;2272;49.226;8.108;2023-02-12T14:43:21;4.40;;;4.00;;
4519;SDS011;2272;49.226;8.108;2023-02-12T14:45:51;4.83;;;3.90;;
4519;SDS011;2272;49.226;8.108;2023-02-12T14:48:38;4.20;;;3.67;;
4519;SDS011;2272;49.226;8.108;2023-02-12T14:51:13;3.97;;;3.67;;
4519;SDS011;2272;49.226;8.108;2023-02-12T14:53:42;3.60;;;3.30;;
4519;SDS011;2272;49.226;8.108;2023-02-12T14:56:12;37.40;;;8.57;;
4519;SDS011;2272;49.226;8.108;2023-02-12T14:58:44;5.20;;;4.70;;
4519;SDS011;2272;49.226;8.108;2023-02-12T15:01:12;7.70;;;5.80;;
4519;SDS011;2272;49.226;8.108;2023-02-12T15:03:39;7.30;;;5.70;;
4519;SDS011;2272;49.226;8.108;2023-02-12T15:06:12;7.20;;;5.87;;
4519;SDS011;2272;49.226;8.108;2023-02-12T15:08:44;11.57;;;6.67;;
4519;SDS011;2272;49.226;8.108;2023-02-12T15:11:20;7.77;;;5.63;;
4519;SDS011;2272;49.226;8.108;2023-02-12T15:13:55;8.43;;;6.90;;
4519;SDS011;2272;49.226;8.108;2023-02-12T15:16:31;7.90;;;6.17;;
4519;SDS011;2272;49.226;8.108;2023-02-12T15:19:04;14.00;;;7.30;;
4519;SDS011;2272;49.226;8.108;2023-02-12T15:21:39;5.83;;;4.93;;
4519;SDS011;2272;49.226;8.108;2023-02-12T15:24:07;4.80;;;4.40;;
4519;SDS011;2272;49.226;8.108;2023-02-12T15:26:35;6.20;;;4.90;;
4519;SDS011;2272;49.226;8.108;2023-02-12T15:29:13;6.93;;;5.40;;
4519;SDS011;2272;49.226;8.108;2023-02-12T15:31:48;6.87;;;6.17;;
4519;SDS011;2272;49.226;8.108;2023-02-12T15:34:17;7.07;;;6.00;;
4519;SDS011;2272;49.226;8.108;2023-02-12T15:36:46;9.90;;;7.10;;
4519;SDS011;2272;49.226;8.108;2023-02-12T15:39:15;7.63;;;6.10;;
4519;SDS011;2272;49.226;8.108;2023-02-12T15:41:45;8.80;;;6.97;;
4519;SDS011;2272;49.226;8.108;2023-02-12T15:44:20;9.97;;;6.43;;
4519;SDS011;2272;49.226;8.108;2023-02-12T15:46:53;12.03;;;6.70;;
4519;SDS011;2272;49.226;8.108;2023-02-12T15:49:23;8.10;;;5.93;;
4519;SDS011;2272;49.226;8.108;2023-02-12T15:51:53;8.10;;;6.60;;
4519;SDS011;2272;49.226;8.108;2023-02-12T15:54:21;9.17;;;6.63;;